createdAt,value
2023-03-21T00:02:25.908Z,100471.41
2023-03-21T00:07:30.475Z,100469.59
2023-03-21T00:12:37.846Z,100463.53
2023-03-21T00:17:41.160Z,100478.41
2023-03-21T00:22:45.871Z,100470.66
2023-03-21T00:28:05.081Z,100469.81
2023-03-21T00:33:22.050Z,100464.75
2023-03-21T00:38:27.369Z,100463.31
2023-03-21T00:43:31.252Z,100461.91
2023-03-21T00:48:34.389Z,100464.69
2023-03-21T00:53:38.956Z,100463.97
2023-03-21T00:58:42.718Z,100476.06
2023-03-21T01:03:51.250Z,100461.53
2023-03-21T01:08:56.217Z,100464.94
2023-03-21T01:14:14.701Z,100465.41
2023-03-21T01:19:37.667Z,100473.19
2023-03-21T01:24:53.873Z,100464.19
2023-03-21T01:29:58.677Z,100460.03
2023-03-21T01:35:05.549Z,100463.16
2023-03-21T01:40:16.744Z,100454.03
2023-03-21T01:45:57.028Z,100461.75
2023-03-21T01:51:01.842Z,100461.44
2023-03-21T01:56:13.799Z,100459.78
2023-03-21T02:01:19.581Z,100449.44
2023-03-21T02:06:31.916Z,100438.97
2023-03-21T02:11:38.632Z,100443.28
2023-03-21T02:16:50.012Z,100434.97
2023-03-21T02:22:21.961Z,100430.59
2023-03-21T02:27:29.635Z,100430.25
2023-03-21T02:32:49.122Z,100425.03
2023-03-21T02:38:00.902Z,100423.22
2023-03-21T02:43:20.861Z,100429.19
2023-03-21T02:48:44.395Z,100416.22
2023-03-21T02:54:24.853Z,100420.88
2023-03-21T02:59:26.258Z,100417.44
2023-03-21T03:04:31.229Z,100418.25
2023-03-21T03:09:46.534Z,100414.56
2023-03-21T03:15:03.357Z,100416.03
2023-03-21T03:20:20.410Z,100405.44
2023-03-21T03:25:41.530Z,100403.88
2023-03-21T03:31:01.131Z,100407.47
2023-03-21T03:36:28.375Z,100410.06
2023-03-21T03:42:04.175Z,100406.38
2023-03-21T03:47:06.990Z,100409.84
2023-03-21T03:52:15.112Z,100416.03
2023-03-21T03:57:20.366Z,100403.88
2023-03-21T04:02:23.635Z,100397.00
2023-03-21T04:07:27.935Z,100391.91
2023-03-21T04:18:05.019Z,100388.59
2023-03-21T04:23:09.086Z,100386.69
2023-03-21T04:28:12.399Z,100397.00
2023-03-21T04:33:17.175Z,100390.81
2023-03-21T04:38:20.406Z,100389.16
2023-03-21T04:43:23.988Z,100391.31
2023-03-21T04:48:28.850Z,100386.06
2023-03-21T04:53:31.932Z,100386.78
2023-03-21T04:58:35.234Z,100393.66
2023-03-21T05:03:40.593Z,100388.44
2023-03-21T05:08:43.810Z,100387.38
2023-03-21T05:13:47.127Z,100386.63
2023-03-21T05:18:52.740Z,100390.94
2023-03-21T05:23:56.693Z,100389.66
2023-03-21T05:28:59.880Z,100397.34
2023-03-21T05:34:04.936Z,100391.75
2023-03-21T05:39:08.223Z,100394.81
2023-03-21T05:44:11.672Z,100388.50
2023-03-21T05:49:16.544Z,100385.78
2023-03-21T05:54:24.344Z,100382.06
2023-03-21T05:59:27.792Z,100381.81
2023-03-21T06:04:34.482Z,100385.00
2023-03-21T06:09:38.073Z,100381.19
2023-03-21T06:14:41.333Z,100373.09
2023-03-21T06:19:45.898Z,100373.63
2023-03-21T06:24:50.167Z,100385.84
2023-03-21T06:29:53.606Z,100387.31
2023-03-21T06:34:58.413Z,100386.66
2023-03-21T06:40:02.149Z,100394.00
2023-03-21T06:45:09.440Z,100404.22
2023-03-21T06:50:14.438Z,100407.13
2023-03-21T06:55:26.218Z,100405.09
2023-03-21T07:00:29.800Z,100403.63
2023-03-21T07:05:36.881Z,100404.91
2023-03-21T07:10:45.538Z,100391.16
2023-03-21T07:15:48.831Z,100401.78
2023-03-21T07:20:53.715Z,100396.84
2023-03-21T07:25:57.567Z,100385.56
2023-03-21T07:31:02.659Z,100376.03
2023-03-21T07:36:12.629Z,100382.09
2023-03-21T07:46:19.788Z,100383.19
2023-03-21T07:51:24.716Z,100376.91
2023-03-21T07:56:28.093Z,100384.00
2023-03-21T08:01:32.195Z,100374.97
2023-03-21T08:06:37.331Z,100383.63
2023-03-21T08:11:41.954Z,100384.56
2023-03-21T08:16:45.339Z,100383.47
2023-03-21T08:21:51.125Z,100377.56
2023-03-21T08:26:54.659Z,100388.72
2023-03-21T08:31:58.263Z,100391.97
2023-03-21T08:37:04.351Z,100383.63
2023-03-21T08:42:07.522Z,100393.41
2023-03-21T08:47:11.015Z,100389.88
2023-03-21T08:52:15.720Z,100390.81
2023-03-21T08:57:18.961Z,100378.72
2023-03-21T09:02:22.529Z,100383.34
2023-03-21T09:07:28.005Z,100380.63
2023-03-21T09:12:31.508Z,100377.47
2023-03-21T09:17:34.689Z,100375.13
2023-03-21T09:22:42.324Z,100377.56
2023-03-21T09:27:46.257Z,100381.13
2023-03-21T09:32:50.483Z,100369.78
2023-03-21T09:37:57.587Z,100368.38
2023-03-21T09:43:12.786Z,100368.38
2023-03-21T09:48:29.479Z,100362.81
2023-03-21T09:53:37.906Z,100360.13
2023-03-21T09:58:46.298Z,100355.88
2023-03-21T10:03:50.736Z,100344.13
2023-03-21T10:08:58.989Z,100335.34
2023-03-21T10:14:06.365Z,100326.88
2023-03-21T10:19:13.968Z,100327.78
2023-03-21T10:24:21.856Z,100330.06
2023-03-21T10:29:30.833Z,100311.91
2023-03-21T10:34:40.930Z,100310.72
2023-03-21T10:39:48.792Z,100311.38
2023-03-21T10:44:54.573Z,100311.47
2023-03-21T10:50:08.432Z,100301.97
2023-03-21T10:55:22.830Z,100304.25
2023-03-21T11:00:30.313Z,100298.81
2023-03-21T11:05:41.015Z,100296.38
2023-03-21T11:10:55.494Z,100282.09
2023-03-21T11:16:07.412Z,100293.03
2023-03-21T11:21:13.132Z,100279.81
2023-03-21T11:26:24.467Z,100274.44
2023-03-21T11:31:40.289Z,100273.66
2023-03-21T11:36:43.701Z,100261.44
2023-03-21T11:41:53.661Z,100254.41
2023-03-21T11:46:56.991Z,100250.59
2023-03-21T11:52:13.654Z,100255.50
2023-03-21T11:57:33.317Z,100235.72
2023-03-21T12:03:03.160Z,100231.16
2023-03-21T12:08:23.606Z,100218.56
2023-03-21T12:13:48.539Z,100224.50
2023-03-21T12:19:10.487Z,100204.75
2023-03-21T12:24:20.672Z,100209.56
2023-03-21T12:29:49.024Z,100198.38
2023-03-21T12:35:28.466Z,100195.25
2023-03-21T12:40:46.088Z,100191.50
2023-03-21T12:45:56.254Z,100192.13
2023-03-21T12:51:03.949Z,100179.50
2023-03-21T12:56:11.564Z,100177.50
2023-03-21T13:01:19.729Z,100161.31
2023-03-21T13:06:26.668Z,100159.63
2023-03-21T13:11:32.217Z,100144.25
2023-03-21T13:16:40.417Z,100141.69
2023-03-21T13:21:51.793Z,100139.78
2023-03-21T13:27:04.332Z,100132.31
2023-03-21T13:32:17.402Z,100115.47
2023-03-21T13:37:21.756Z,100115.84
2023-03-21T13:42:33.485Z,100120.88
2023-03-21T13:47:42.645Z,100119.44
2023-03-21T13:53:25.563Z,100110.41
2023-03-21T13:58:38.595Z,100095.50
2023-03-21T14:03:45.536Z,100099.47
2023-03-21T14:08:51.167Z,100095.88
2023-03-21T14:13:56.450Z,100090.97
2023-03-21T14:19:05.930Z,100087.97
2023-03-21T14:24:14.752Z,100079.63
2023-03-21T14:29:26.600Z,100077.53
2023-03-21T14:34:34.697Z,100068.53
2023-03-21T14:39:37.812Z,100068.25
2023-03-21T14:44:58.663Z,100057.56
2023-03-21T14:50:04.302Z,100061.50
2023-03-21T14:55:16.961Z,100047.56
2023-03-21T15:00:26.717Z,100040.63
2023-03-21T15:05:33.861Z,100038.00
2023-03-21T15:10:38.544Z,100035.31
2023-03-21T15:15:43.204Z,100036.88
2023-03-21T15:20:51.406Z,100025.81
2023-03-21T15:25:54.988Z,100015.50
2023-03-21T15:30:58.713Z,100010.78
2023-03-21T15:36:10.741Z,100012.97
2023-03-21T15:41:32.886Z,100006.13
2023-03-21T15:46:43.213Z,100004.31
2023-03-21T15:51:52.704Z,100004.88
2023-03-21T15:57:01.326Z,99997.94
2023-03-21T16:02:06.008Z,99995.38
2023-03-21T16:07:17.765Z,100008.03
2023-03-21T16:12:21.794Z,100010.88
2023-03-21T16:17:30.236Z,100007.75
2023-03-21T16:22:35.947Z,100011.09
2023-03-21T16:27:39.185Z,100008.34
2023-03-21T16:32:42.753Z,100014.38
2023-03-21T16:37:48.373Z,100007.59
2023-03-21T16:42:51.750Z,100013.91
2023-03-21T16:47:55.241Z,100006.22
2023-03-21T16:53:00.400Z,100005.47
2023-03-21T16:58:03.623Z,100006.03
2023-03-21T17:03:14.940Z,100006.84
2023-03-21T17:08:22.020Z,100007.34
2023-03-21T17:13:25.553Z,100010.72
2023-03-21T17:18:29.810Z,100010.41
2023-03-21T17:23:34.416Z,100019.03
2023-03-21T17:28:37.982Z,100030.16
2023-03-21T17:33:41.411Z,100025.91
2023-03-21T17:38:46.930Z,100030.06
2023-03-21T17:43:55.923Z,100037.72
2023-03-21T17:48:59.301Z,100041.41
2023-03-21T17:54:05.086Z,100055.00
2023-03-21T17:59:13.139Z,100063.47
2023-03-21T18:04:16.663Z,100059.22
2023-03-21T18:09:21.850Z,100071.28
2023-03-21T18:14:28.852Z,100070.00
2023-03-21T18:19:34.652Z,100079.06
2023-03-21T18:24:39.266Z,100083.69
2023-03-21T18:30:22.222Z,100087.03
2023-03-21T18:35:06.498Z,100083.88
2023-03-21T18:40:13.159Z,100085.53
2023-03-21T18:45:18.211Z,100085.22
2023-03-21T18:50:21.880Z,100080.09
2023-03-21T18:55:44.359Z,100081.03
2023-03-21T19:00:50.671Z,100081.69
2023-03-21T19:05:53.977Z,100081.31
2023-03-21T19:11:05.545Z,100086.56
2023-03-21T19:16:11.256Z,100081.13
2023-03-21T19:21:14.831Z,100088.97
2023-03-21T19:26:19.408Z,100080.75
2023-03-21T19:31:24.444Z,100078.56
2023-03-21T19:36:27.961Z,100087.38
2023-03-21T19:41:34.220Z,100090.78
2023-03-21T19:46:37.913Z,100086.00
2023-03-21T19:51:41.113Z,100084.47
2023-03-21T19:56:47.661Z,100087.59
2023-03-21T20:02:34.003Z,100079.81
2023-03-21T20:08:01.288Z,100082.97
2023-03-21T20:13:22.233Z,100082.75
2023-03-21T20:18:25.568Z,100087.81
2023-03-21T20:23:28.827Z,100089.25
2023-03-21T20:28:33.501Z,100089.69
2023-03-21T20:33:37.366Z,100084.38
2023-03-21T20:38:40.914Z,100086.34
2023-03-21T20:49:08.915Z,100088.16
2023-03-21T20:54:12.198Z,100082.00
2023-03-21T20:59:25.591Z,100073.75
2023-03-21T21:04:48.228Z,100082.38
2023-03-21T21:09:54.571Z,100093.34
2023-03-21T21:14:59.330Z,100090.84
2023-03-21T21:20:08.957Z,100095.44
2023-03-21T21:25:13.771Z,100094.75
2023-03-21T21:30:18.833Z,100084.69
2023-03-21T21:35:22.506Z,100075.47
2023-03-21T21:40:26.141Z,100070.13
2023-03-21T21:45:30.802Z,100066.34
2023-03-21T21:50:34.354Z,100061.34
2023-03-21T21:55:37.995Z,100056.56
2023-03-21T22:00:42.721Z,100053.28
2023-03-21T22:05:46.153Z,100053.09
2023-03-21T22:10:49.336Z,100048.72
2023-03-21T22:15:54.086Z,100051.13
2023-03-21T22:21:00.731Z,100038.72
2023-03-21T22:26:03.951Z,100044.13
2023-03-21T22:31:13.231Z,100044.94
2023-03-21T22:36:20.259Z,100047.72
2023-03-21T22:41:23.356Z,100050.94
2023-03-21T22:46:27.896Z,100046.78
2023-03-21T22:51:31.111Z,100038.38
2023-03-21T22:56:34.204Z,100044.66
2023-03-21T23:01:39.973Z,100044.84
2023-03-21T23:06:43.943Z,100048.19
2023-03-21T23:11:49.794Z,100039.41
2023-03-21T23:16:55.103Z,100026.34
2023-03-21T23:21:59.356Z,100020.97
2023-03-21T23:27:02.667Z,100026.63
2023-03-21T23:32:07.427Z,100036.44
2023-03-21T23:37:10.673Z,100032.44
2023-03-21T23:42:13.800Z,100035.66
2023-03-21T23:47:18.314Z,100042.16
2023-03-21T23:52:21.564Z,100037.59
2023-03-21T23:57:25.157Z,100036.16
